Time;durP1;ratioP1;P1;durP2;ratioP2;P2;SDS_P1;SDS_P2;PMS_P1;PMS_P2;Temp;Humidity;BMP_temperature;BMP_pressure;BME280_temperature;BME280_humidity;BME280_pressure;Samples;Min_cycle;Max_cycle;Signal;HPM_P1;HPM_P2
2023/11/09 00:02:02;;;;;;;4.43;3.45;;;;;;;12.49;95.64;100128.13;5058296;28;20036;-67
2023/11/09 00:04:28;;;;;;;4.65;3.38;;;;;;;12.43;96.33;100126.09;5057310;28;20057;-67
2023/11/09 00:06:53;;;;;;;4.72;3.70;;;;;;;12.46;95.88;100139.06;5058264;28;20348;-68
2023/11/09 00:09:19;;;;;;;4.38;3.63;;;;;;;12.51;95.12;100139.44;5058210;28;20245;-67
2023/11/09 00:11:46;;;;;;;4.57;3.63;;;;;;;12.59;95.17;100149.22;5056212;28;20489;-67
2023/11/09 00:14:16;;;;;;;4.97;4.25;;;;;;;12.49;95.76;100144.06;5058034;28;20070;-67
2023/11/09 00:16:42;;;;;;;4.30;3.90;;;;;;;12.51;95.51;100154.53;5057366;28;20071;-67
2023/11/09 00:19:07;;;;;;;4.47;3.47;;;;;;;12.61;94.57;100147.25;5056569;28;20033;-67
2023/11/09 00:21:33;;;;;;;4.35;3.53;;;;;;;12.70;93.89;100151.56;5057820;28;20085;-67
2023/11/09 00:23:58;;;;;;;3.80;3.47;;;;;;;12.68;93.56;100148.25;5057735;28;20037;-67
2023/11/09 00:26:24;;;;;;;4.05;3.35;;;;;;;12.55;93.18;100134.63;5057540;28;20097;-67
2023/11/09 00:28:50;;;;;;;4.63;3.38;;;;;;;12.57;92.61;100138.78;5057039;28;20090;-67
2023/11/09 00:31:19;;;;;;;4.30;3.05;;;;;;;12.55;92.16;100129.31;5056468;28;20040;-67
2023/11/09 00:33:45;;;;;;;4.55;3.83;;;;;;;12.40;92.56;100126.44;5057221;28;20407;-67
2023/11/09 00:36:10;;;;;;;3.80;3.13;;;;;;;12.19;92.89;100131.38;5058547;28;20036;-67
2023/11/09 00:38:37;;;;;;;3.35;3.05;;;;;;;12.19;91.72;100132.22;5056972;28;20460;-67
2023/11/09 00:41:03;;;;;;;4.45;3.55;;;;;;;12.07;91.96;100128.22;5056626;28;20223;-67
2023/11/09 00:43:29;;;;;;;4.15;2.95;;;;;;;12.10;92.23;100144.63;5056188;28;20024;-67
2023/11/09 00:45:55;;;;;;;4.30;2.85;;;;;;;12.24;91.13;100142.34;5056246;28;20497;-67
2023/11/09 00:48:21;;;;;;;4.82;3.22;;;;;;;12.21;91.05;100142.66;5056443;28;20104;-67
2023/11/09 00:50:46;;;;;;;3.20;2.80;;;;;;;12.30;90.48;100152.31;5056567;28;20037;-67
2023/11/09 00:53:11;;;;;;;3.55;2.75;;;;;;;12.28;90.16;100146.34;5056511;28;20036;-67
2023/11/09 00:55:37;;;;;;;3.67;2.80;;;;;;;12.20;89.80;100143.66;5055998;28;20041;-67
2023/11/09 00:58:02;;;;;;;2.95;2.60;;;;;;;12.20;89.30;100143.66;5056420;28;20036;-67
2023/11/09 01:00:28;;;;;;;3.67;2.30;;;;;;;12.06;90.06;100153.91;5056572;28;20029;-67
2023/11/09 01:02:54;;;;;;;3.60;2.33;;;;;;;12.15;89.18;100163.56;5056193;28;20044;-67
2023/11/09 01:05:20;;;;;;;3.13;2.70;;;;;;;12.16;89.37;100167.06;5056547;28;20035;-67
2023/11/09 01:07:46;;;;;;;4.57;2.72;;;;;;;12.20;88.52;100172.88;5056265;28;20075;-67
2023/11/09 01:10:12;;;;;;;3.85;2.60;;;;;;;12.06;89.09;100176.97;5056462;28;20330;-67
2023/11/09 01:12:37;;;;;;;3.17;2.47;;;;;;;12.11;88.39;100169.34;5056730;28;20029;-66
2023/11/09 01:15:03;;;;;;;2.70;2.08;;;;;;;11.96;88.04;100139.13;5056851;28;20032;-67
2023/11/09 01:17:29;;;;;;;3.70;2.28;;;;;;;12.03;88.62;100164.84;5057011;28;20037;-67
2023/11/09 01:19:54;;;;;;;2.67;2.47;;;;;;;11.97;87.94;100170.81;5056443;28;20318;-67
2023/11/09 01:22:20;;;;;;;3.22;2.20;;;;;;;11.94;87.71;100171.13;5057981;28;20036;-67
2023/11/09 01:24:45;;;;;;;4.15;2.30;;;;;;;11.89;87.19;100170.78;5056086;28;20342;-67
2023/11/09 01:27:11;;;;;;;3.22;2.20;;;;;;;11.61;87.97;100172.78;5055954;28;20187;-67
2023/11/09 01:29:36;;;;;;;3.05;2.33;;;;;;;11.54;88.98;100171.75;5053927;28;20044;-66
2023/11/09 01:32:02;;;;;;;4.22;2.53;;;;;;;11.66;88.02;100170.47;5055077;28;20052;-66
2023/11/09 01:34:28;;;;;;;3.53;2.50;;;;;;;11.69;87.65;100178.13;5054636;28;20060;-66
2023/11/09 01:36:53;;;;;;;4.15;2.30;;;;;;;11.63;87.99;100169.97;5055691;28;20037;-67
2023/11/09 01:39:22;;;;;;;3.53;2.20;;;;;;;11.73;88.01;100173.34;5055888;28;20370;-67
2023/11/09 01:41:48;;;;;;;3.30;2.28;;;;;;;11.79;87.13;100175.38;5055960;28;20064;-67
2023/11/09 01:44:13;;;;;;;3.55;2.22;;;;;;;11.81;87.36;100176.88;5055671;28;20043;-67
2023/11/09 01:46:41;;;;;;;2.58;1.85;;;;;;;11.78;86.87;100166.59;5055740;28;20033;-67
2023/11/09 01:49:09;;;;;;;3.33;1.98;;;;;;;11.80;86.49;100180.53;5055452;28;20037;-67
2023/11/09 01:51:35;;;;;;;3.47;2.10;;;;;;;11.78;86.96;100179.84;5054848;28;20366;-66
2023/11/09 01:54:00;;;;;;;2.83;2.00;;;;;;;11.83;86.52;100180.22;5055678;28;20292;-67
2023/11/09 01:56:26;;;;;;;3.03;2.17;;;;;;;11.75;86.68;100181.97;5055048;28;20117;-67
2023/11/09 01:58:52;;;;;;;3.33;1.95;;;;;;;11.74;86.57;100177.66;5055098;28;20024;-67
2023/11/09 02:01:19;;;;;;;3.55;2.28;;;;;;;11.70;86.69;100178.97;5055366;28;20041;-66
2023/11/09 02:03:45;;;;;;;2.42;1.88;;;;;;;11.66;86.69;100178.44;5055447;28;20041;-67
2023/11/09 02:06:12;;;;;;;2.33;1.77;;;;;;;11.58;86.85;100183.72;5055138;28;20037;-67
2023/11/09 02:08:38;;;;;;;2.03;1.80;;;;;;;11.59;86.59;100176.59;5055436;28;20056;-66
2023/11/09 02:11:05;;;;;;;2.40;1.92;;;;;;;11.57;87.10;100190.00;5055105;28;20037;-67
2023/11/09 02:13:30;;;;;;;3.78;1.88;;;;;;;11.47;86.58;100189.28;5055733;28;20245;-67
2023/11/09 02:15:56;;;;;;;2.42;2.22;;;;;;;11.41;87.36;100181.91;5055450;28;20037;-67
2023/11/09 02:18:22;;;;;;;2.33;1.50;;;;;;;11.40;87.13;100178.44;5055569;28;20035;-67
2023/11/09 02:20:51;;;;;;;3.97;1.90;;;;;;;11.41;87.06;100174.81;5055456;28;20035;-67
2023/11/09 02:23:23;;;;;;;1.77;1.50;;;;;;;11.31;87.07;100174.06;5054180;28;20038;-66
2023/11/09 02:25:49;;;;;;;1.88;1.60;;;;;;;11.28;86.76;100165.59;5054900;28;20032;-67
2023/11/09 02:28:14;;;;;;;3.40;1.60;;;;;;;11.26;87.20;100173.72;5055846;28;20064;-67
2023/11/09 02:30:41;;;;;;;2.15;1.95;;;;;;;11.16;86.77;100171.16;5055016;28;20040;-67
2023/11/09 02:33:08;;;;;;;1.52;1.33;;;;;;;11.04;86.95;100155.66;5055763;28;20029;-67
2023/11/09 02:35:33;;;;;;;2.97;1.73;;;;;;;11.22;86.53;100179.47;5055033;28;20037;-67
2023/11/09 02:37:59;;;;;;;2.83;1.63;;;;;;;11.14;86.96;100183.75;5054977;28;20049;-67
2023/11/09 02:40:24;;;;;;;1.60;1.45;;;;;;;11.12;86.67;100184.88;5055203;28;20075;-66
2023/11/09 02:42:50;;;;;;;1.92;1.70;;;;;;;11.15;86.35;100193.34;5054559;28;20036;-67
2023/11/09 02:45:15;;;;;;;1.60;1.50;;;;;;;11.15;85.98;100200.47;5055610;28;20067;-67
2023/11/09 02:47:41;;;;;;;2.42;1.58;;;;;;;11.18;86.70;100200.16;5055440;28;20296;-66
2023/11/09 02:50:07;;;;;;;2.47;1.50;;;;;;;11.11;86.65;100205.25;5054651;28;20363;-67
2023/11/09 02:52:32;;;;;;;3.47;1.77;;;;;;;11.07;86.62;100203.91;5055482;28;20155;-67
2023/11/09 02:54:59;;;;;;;2.63;1.58;;;;;;;11.12;85.81;100204.25;5056544;28;20037;-67
2023/11/09 02:57:26;;;;;;;2.10;1.50;;;;;;;11.07;86.33;100211.00;5059152;28;20041;-67
2023/11/09 02:59:53;;;;;;;2.45;1.70;;;;;;;10.93;85.78;100204.44;5058820;28;20040;-67
2023/11/09 03:02:19;;;;;;;2.50;2.22;;;;;;;11.01;85.71;100216.94;5059475;28;20052;-67
2023/11/09 03:04:44;;;;;;;2.85;1.40;;;;;;;11.01;86.38;100209.81;5057877;28;20037;-66
2023/11/09 03:07:10;;;;;;;2.45;1.70;;;;;;;11.03;85.65;100210.50;5059076;28;20070;-67
2023/11/09 03:09:37;;;;;;;4.63;1.95;;;;;;;11.04;85.72;100217.44;5058543;28;20051;-66
2023/11/09 03:12:06;;;;;;;2.08;1.70;;;;;;;11.01;85.53;100220.41;5058016;28;20044;-67
2023/11/09 03:14:33;;;;;;;2.53;1.40;;;;;;;11.06;84.95;100231.38;5058152;28;20334;-67
2023/11/09 03:17:00;;;;;;;1.63;1.25;;;;;;;11.13;84.49;100219.19;5058295;28;20037;-67
2023/11/09 03:19:26;;;;;;;2.03;1.45;;;;;;;11.12;84.38;100233.41;5057627;28;20296;-67
2023/11/09 03:21:51;;;;;;;1.40;1.30;;;;;;;11.14;84.31;100239.41;5058185;28;20048;-67
2023/11/09 03:24:18;;;;;;;2.72;1.52;;;;;;;11.17;83.91;100243.56;5058627;28;20033;-66
2023/11/09 03:26:43;;;;;;;2.17;1.20;;;;;;;11.22;83.92;100243.94;5058308;28;20048;-67
2023/11/09 03:29:09;;;;;;;2.17;1.27;;;;;;;11.19;83.52;100245.06;5057982;28;20041;-66
2023/11/09 03:31:35;;;;;;;1.30;1.20;;;;;;;11.19;82.97;100255.66;5057012;28;20056;-66
2023/11/09 03:34:02;;;;;;;2.03;1.17;;;;;;;11.10;83.06;100246.00;5057869;28;20035;-67
2023/11/09 03:36:29;;;;;;;1.70;1.50;;;;;;;11.00;83.64;100249.72;5058116;28;20037;-67
2023/11/09 03:38:55;;;;;;;2.92;1.50;;;;;;;10.93;84.34;100248.66;5058050;28;20102;-66
2023/11/09 03:41:23;;;;;;;2.47;1.80;;;;;;;10.93;84.37;100244.19;5058121;28;20111;-66
2023/11/09 03:43:48;;;;;;;1.90;1.70;;;;;;;10.83;84.43;100244.25;5057876;28;20051;-66
2023/11/09 03:46:14;;;;;;;2.60;1.75;;;;;;;10.77;84.71;100244.88;5057895;28;20128;-67
2023/11/09 03:48:40;;;;;;;2.40;2.00;;;;;;;10.76;84.84;100251.16;5058023;28;20037;-67
2023/11/09 03:51:05;;;;;;;2.67;2.05;;;;;;;10.78;85.47;100256.31;5058185;28;20033;-66
2023/11/09 03:53:30;;;;;;;2.10;1.80;;;;;;;10.68;85.33;100256.38;5057730;28;20041;-67
2023/11/09 03:55:56;;;;;;;2.45;2.20;;;;;;;10.64;85.84;100255.00;5057564;28;20051;-67
2023/11/09 03:58:21;;;;;;;2.05;1.92;;;;;;;10.60;86.17;100264.22;5057745;28;20035;-67
2023/11/09 04:00:47;;;;;;;3.33;2.28;;;;;;;10.60;85.97;100263.41;5057980;28;20269;-67
2023/11/09 04:03:14;;;;;;;2.97;2.13;;;;;;;10.61;86.39;100271.19;5057879;28;20350;-67
2023/11/09 04:05:40;;;;;;;2.78;2.22;;;;;;;10.61;85.95;100270.34;5057675;28;20029;-67
2023/11/09 04:08:05;;;;;;;3.38;2.05;;;;;;;10.59;86.09;100269.69;5057933;28;20060;-67
2023/11/09 04:10:31;;;;;;;3.05;2.03;;;;;;;10.57;85.64;100272.47;5057613;28;20037;-67
2023/11/09 04:12:56;;;;;;;2.25;1.77;;;;;;;10.50;86.06;100266.09;5057092;28;20226;-67
2023/11/09 04:15:22;;;;;;;2.15;1.80;;;;;;;10.42;85.82;100263.38;5057448;28;20051;-67
2023/11/09 04:17:47;;;;;;;2.13;1.60;;;;;;;10.46;86.49;100268.22;5057437;28;20041;-67
2023/11/09 04:20:13;;;;;;;1.80;1.70;;;;;;;10.48;86.49;100265.44;5057398;28;20039;-67
2023/11/09 04:22:38;;;;;;;3.17;1.70;;;;;;;10.36;86.30;100272.72;5056734;28;20037;-67
2023/11/09 04:25:04;;;;;;;3.55;2.53;;;;;;;10.43;85.24;100271.16;5057381;28;20384;-67
2023/11/09 04:27:30;;;;;;;2.83;2.30;;;;;;;10.49;85.09;100280.31;5057533;28;20045;-67
2023/11/09 04:29:56;;;;;;;1.63;1.50;;;;;;;10.29;85.42;100274.28;5056912;28;20278;-67
2023/11/09 04:32:21;;;;;;;2.50;1.77;;;;;;;10.47;85.02;100274.34;5057293;28;20103;-67
2023/11/09 04:34:48;;;;;;;2.00;1.80;;;;;;;10.41;85.49;100275.78;5056930;28;20314;-67
2023/11/09 04:37:13;;;;;;;4.03;2.45;;;;;;;10.50;84.64;100272.25;5057018;28;20477;-67
2023/11/09 04:39:46;;;;;;;2.22;1.75;;;;;;;10.59;84.46;100289.03;5057251;28;20029;-67
2023/11/09 04:42:18;;;;;;;2.05;1.55;;;;;;;10.61;83.78;100278.31;5056379;28;20155;-67
2023/11/09 04:44:46;;;;;;;2.35;2.05;;;;;;;10.69;83.64;100287.16;5057111;28;20062;-67
2023/11/09 04:47:13;;;;;;;1.60;1.50;;;;;;;10.73;83.17;100290.34;5056741;28;20074;-67
2023/11/09 04:49:45;;;;;;;2.10;1.52;;;;;;;10.73;83.23;100298.28;5056328;28;20048;-66
2023/11/09 04:52:16;;;;;;;2.03;1.70;;;;;;;10.43;84.10;100300.28;5056205;28;20063;-67
2023/11/09 04:54:56;;;;;;;3.88;2.03;;;;;;;10.48;84.95;100298.03;5055717;28;20031;-67
2023/11/09 05:08:24;;;;;;;3.03;2.08;;;;;;;10.54;84.61;100317.78;5057819;28;20110;-66
2023/11/09 05:10:49;;;;;;;3.78;1.90;;;;;;;10.61;84.26;100326.81;5059916;28;20048;-67
2023/11/09 05:13:15;;;;;;;4.07;1.90;;;;;;;10.67;83.69;100325.38;5060047;28;20037;-67
2023/11/09 05:15:41;;;;;;;4.53;2.45;;;;;;;10.61;84.70;100331.28;5058462;28;20045;-66
2023/11/09 05:18:06;;;;;;;4.00;2.72;;;;;;;10.69;84.23;100334.84;5057651;28;20322;-67
2023/11/09 05:20:32;;;;;;;3.45;2.55;;;;;;;10.72;83.75;100336.38;5057666;28;20048;-67
2023/11/09 05:22:57;;;;;;;4.70;2.47;;;;;;;10.69;83.88;100324.25;5058351;28;20408;-67
2023/11/09 05:25:23;;;;;;;3.58;2.97;;;;;;;10.72;83.91;100333.72;5058142;28;20384;-67
2023/11/09 05:27:48;;;;;;;7.85;3.00;;;;;;;10.71;84.06;100330.22;5057965;28;20067;-67
2023/11/09 05:30:16;;;;;;;3.03;2.53;;;;;;;10.71;84.18;100329.41;5056792;28;20865;-67
2023/11/09 05:32:44;;;;;;;4.75;3.30;;;;;;;10.72;84.33;100345.13;5056433;28;20029;-67
2023/11/09 05:35:11;;;;;;;4.13;3.15;;;;;;;10.74;84.80;100347.66;5055771;28;20042;-66
2023/11/09 05:37:37;;;;;;;5.00;3.97;;;;;;;10.79;84.57;100358.63;5055394;28;20215;-67
2023/11/09 05:40:07;;;;;;;6.57;5.03;;;;;;;10.85;84.81;100358.03;5056736;28;20037;-67
2023/11/09 05:42:41;;;;;;;9.88;7.07;;;;;;;10.88;84.10;100369.16;5056829;28;20396;-67
2023/11/09 05:45:07;;;;;;;6.60;5.90;;;;;;;10.85;83.86;100368.63;5057189;28;20044;-67
2023/11/09 05:47:33;;;;;;;3.20;2.80;;;;;;;10.90;83.33;100369.00;5057283;28;20044;-67
2023/11/09 05:49:59;;;;;;;3.83;3.28;;;;;;;11.09;83.35;100362.75;5057045;28;20029;-67
2023/11/09 05:52:25;;;;;;;5.60;3.00;;;;;;;11.18;82.54;100375.09;5055846;28;20310;-67
2023/11/09 05:54:50;;;;;;;4.50;3.88;;;;;;;11.20;82.04;100379.28;5056216;28;20107;-67
2023/11/09 05:57:16;;;;;;;6.50;4.78;;;;;;;11.22;81.81;100383.59;5056673;28;20041;-67
2023/11/09 05:59:42;;;;;;;7.80;5.00;;;;;;;11.19;82.64;100384.72;5056789;28;20025;-67
2023/11/09 06:02:07;;;;;;;7.03;4.60;;;;;;;11.17;81.99;100384.88;5057060;28;20056;-67
2023/11/09 06:04:35;;;;;;;9.13;6.13;;;;;;;11.20;82.53;100389.03;5056066;28;20318;-67
2023/11/09 06:07:02;;;;;;;9.60;6.38;;;;;;;11.11;82.47;100379.34;5057362;28;20040;-67
2023/11/09 06:09:29;;;;;;;9.48;7.80;;;;;;;11.22;82.03;100392.38;5056630;28;20041;-67
2023/11/09 06:11:56;;;;;;;13.07;6.75;;;;;;;11.33;81.69;100384.19;5057591;28;20037;-67
2023/11/09 06:14:23;;;;;;;11.02;9.02;;;;;;;11.26;81.64;100395.56;5057173;28;20111;-67
2023/11/09 06:16:49;;;;;;;4.63;3.70;;;;;;;11.38;81.54;100391.69;5056844;28;20041;-67
2023/11/09 06:19:14;;;;;;;6.72;4.53;;;;;;;11.48;81.67;100400.44;5057363;28;20035;-67
2023/11/09 06:21:40;;;;;;;5.00;3.45;;;;;;;11.71;80.66;100391.03;5056747;28;20043;-68
2023/11/09 06:24:07;;;;;;;8.35;4.75;;;;;;;11.74;78.99;100382.75;5057497;28;20052;-67
2023/11/09 06:26:33;;;;;;;9.50;4.32;;;;;;;11.60;78.83;100393.09;5056594;28;20037;-67
2023/11/09 06:28:59;;;;;;;7.65;4.10;;;;;;;11.79;79.10;100403.56;5055324;28;20040;-67
2023/11/09 06:31:26;;;;;;;8.55;5.18;;;;;;;12.04;78.80;100404.56;5059470;28;20028;-67
2023/11/09 06:33:55;;;;;;;9.77;6.78;;;;;;;11.94;78.72;100402.00;5059149;28;20349;-67
2023/11/09 06:36:22;;;;;;;3.83;3.22;;;;;;;12.18;78.53;100400.50;5059105;28;20100;-67
2023/11/09 06:38:48;;;;;;;3.80;3.47;;;;;;;12.44;77.72;100404.81;5060547;28;20129;-67
2023/11/09 06:41:14;;;;;;;3.75;3.30;;;;;;;12.64;76.60;100402.78;5059039;28;20044;-68
2023/11/09 06:43:40;;;;;;;6.88;5.80;;;;;;;12.76;75.48;100398.84;5058850;28;20067;-67
2023/11/09 06:46:07;;;;;;;5.10;4.50;;;;;;;12.63;75.06;100401.13;5059166;28;20287;-66
2023/11/09 06:48:33;;;;;;;5.63;5.15;;;;;;;12.35;76.09;100394.31;5059242;28;20037;-68
2023/11/09 06:50:58;;;;;;;8.95;8.15;;;;;;;12.45;75.03;100395.03;5058496;28;20349;-67
2023/11/09 06:53:24;;;;;;;7.70;6.93;;;;;;;12.67;75.16;100404.31;5058835;28;20033;-67
2023/11/09 06:55:51;;;;;;;4.53;4.13;;;;;;;12.87;75.73;100408.38;5058876;28;20056;-67
2023/11/09 06:58:17;;;;;;;2.47;2.28;;;;;;;13.05;73.86;100416.22;5057671;28;20071;-67
2023/11/09 07:00:43;;;;;;;2.83;2.35;;;;;;;13.24;74.19;100420.47;5058136;28;20103;-67
2023/11/09 07:03:09;;;;;;;3.28;2.80;;;;;;;13.31;72.25;100416.16;5058330;28;20096;-67
2023/11/09 07:05:39;;;;;;;3.45;3.00;;;;;;;13.31;73.07;100416.16;5058608;28;20057;-67
2023/11/09 07:08:04;;;;;;;5.07;2.53;;;;;;;13.36;72.05;100414.69;5058215;28;20033;-67
2023/11/09 07:10:30;;;;;;;3.53;3.00;;;;;;;13.41;71.71;100419.50;5057275;28;20047;-67
2023/11/09 07:12:56;;;;;;;2.53;2.33;;;;;;;13.45;71.79;100404.88;5057224;28;20310;-67
2023/11/09 07:15:25;;;;;;;3.97;3.58;;;;;;;13.63;72.47;100408.25;5058108;28;20029;-67
2023/11/09 07:17:50;;;;;;;4.20;3.00;;;;;;;13.76;70.99;100405.09;5057509;28;20048;-67
2023/11/09 07:20:16;;;;;;;3.17;2.88;;;;;;;13.86;70.50;100408.41;5057740;28;20345;-67
2023/11/09 07:22:43;;;;;;;6.63;2.85;;;;;;;13.84;70.17;100401.59;5057359;28;20107;-68
2023/11/09 07:25:10;;;;;;;5.93;5.38;;;;;;;13.78;70.50;100421.72;5058065;28;20110;-67
2023/11/09 07:27:35;;;;;;;6.07;3.05;;;;;;;13.94;70.47;100421.72;5057956;28;20064;-67
2023/11/09 07:30:02;;;;;;;9.75;8.85;;;;;;;13.77;69.78;100419.22;5056657;28;20029;-68
2023/11/09 07:32:28;;;;;;;4.18;3.25;;;;;;;14.01;70.00;100411.25;5057440;28;20090;-67
2023/11/09 07:34:54;;;;;;;5.35;4.90;;;;;;;14.05;69.61;100416.06;5057230;28;20037;-67
2023/11/09 07:37:20;;;;;;;6.32;3.65;;;;;;;13.91;67.76;100414.06;5056792;28;20039;-67
2023/11/09 07:39:45;;;;;;;4.57;4.25;;;;;;;13.64;69.67;100420.56;5057275;28;20041;-67
2023/11/09 07:42:11;;;;;;;3.05;2.83;;;;;;;13.82;69.70;100417.72;5058033;28;20047;-68
2023/11/09 07:44:36;;;;;;;4.72;4.32;;;;;;;13.66;69.21;100428.38;5057918;28;20216;-67
2023/11/09 07:47:02;;;;;;;4.28;3.80;;;;;;;13.84;68.59;100422.91;5057906;28;20040;-67
2023/11/09 07:49:30;;;;;;;2.50;2.20;;;;;;;14.04;68.80;100410.91;5057256;28;20048;-67
2023/11/09 07:51:59;;;;;;;2.65;2.10;;;;;;;14.10;69.59;100412.06;5057480;28;20041;-68
2023/11/09 07:54:29;;;;;;;2.78;2.40;;;;;;;14.25;67.83;100421.03;5057703;28;20206;-68
2023/11/09 07:56:55;;;;;;;2.80;2.60;;;;;;;14.37;69.01;100425.00;5057570;28;20250;-67
2023/11/09 07:59:23;;;;;;;3.90;2.97;;;;;;;14.36;67.34;100413.50;5057493;28;20127;-67
2023/11/09 08:01:49;;;;;;;4.05;3.58;;;;;;;14.55;68.33;100415.00;5056062;28;20226;-66
2023/11/09 08:04:15;;;;;;;3.10;2.90;;;;;;;14.61;68.21;100405.50;5057052;28;20331;-67
2023/11/09 08:06:42;;;;;;;6.13;5.47;;;;;;;14.68;67.26;100414.47;5057084;28;20083;-67
2023/11/09 08:09:09;;;;;;;3.90;3.60;;;;;;;14.55;66.14;100419.47;5056662;28;20090;-67
2023/11/09 08:11:37;;;;;;;6.18;4.10;;;;;;;14.49;66.65;100413.00;5055543;28;20116;-66
2023/11/09 08:14:04;;;;;;;2.60;2.40;;;;;;;14.30;66.72;100421.34;5056918;28;20033;-67
2023/11/09 08:16:30;;;;;;;5.80;5.40;;;;;;;14.20;66.75;100421.53;5057157;28;20048;-66
2023/11/09 08:18:55;;;;;;;3.55;3.25;;;;;;;14.20;66.32;100426.84;5057800;28;20319;-66
2023/11/09 08:21:25;;;;;;;3.20;3.00;;;;;;;14.36;65.16;100428.66;5060031;28;20086;-66
2023/11/09 08:23:51;;;;;;;3.00;2.72;;;;;;;14.56;65.64;100427.31;5058146;28;20065;-66
2023/11/09 08:26:16;;;;;;;4.25;3.95;;;;;;;14.60;63.45;100430.50;5056419;28;20033;-66
2023/11/09 08:28:42;;;;;;;3.97;3.67;;;;;;;14.65;64.06;100428.16;5057302;28;20047;-67
2023/11/09 08:31:08;;;;;;;6.95;6.53;;;;;;;14.62;64.20;100429.31;5057489;28;20051;-66
2023/11/09 08:33:34;;;;;;;3.58;2.30;;;;;;;14.41;64.92;100428.16;5057381;28;20036;-66
2023/11/09 08:36:04;;;;;;;4.63;4.22;;;;;;;14.61;65.69;100427.66;5057275;28;20451;-66
2023/11/09 08:38:33;;;;;;;2.15;1.95;;;;;;;14.41;64.35;100428.16;5052866;28;20290;-67
2023/11/09 08:41:01;;;;;;;2.30;2.10;;;;;;;14.45;65.27;100435.66;5038531;28;20053;-66
2023/11/09 08:43:26;;;;;;;6.28;5.78;;;;;;;14.50;64.23;100440.47;5058134;28;20407;-66
2023/11/09 08:45:52;;;;;;;7.68;7.07;;;;;;;14.54;65.39;100442.63;5057357;28;20049;-66
2023/11/09 08:48:18;;;;;;;3.17;2.97;;;;;;;14.67;63.99;100436.81;5059411;28;20037;-66
2023/11/09 08:50:45;;;;;;;5.32;4.82;;;;;;;14.69;63.72;100424.97;5056521;28;20040;-67
2023/11/09 08:53:11;;;;;;;3.70;2.95;;;;;;;14.80;65.13;100421.09;5058192;28;20063;-66
2023/11/09 08:55:39;;;;;;;2.00;1.90;;;;;;;14.68;64.83;100417.97;5056348;28;20323;-66
2023/11/09 08:58:04;;;;;;;2.70;2.33;;;;;;;14.68;63.48;100427.81;5058660;28;20025;-66
2023/11/09 09:00:32;;;;;;;2.40;2.05;;;;;;;14.71;64.55;100423.97;5056656;28;20040;-66
2023/11/09 09:02:58;;;;;;;3.22;2.95;;;;;;;14.67;64.45;100418.16;5059151;28;20098;-67
2023/11/09 09:05:28;;;;;;;3.45;2.00;;;;;;;14.78;63.23;100417.78;5056540;28;20032;-66
2023/11/09 09:07:56;;;;;;;2.20;2.00;;;;;;;14.73;63.32;100420.13;5044224;28;20047;-66
2023/11/09 09:10:23;;;;;;;1.88;1.77;;;;;;;14.69;63.25;100419.63;5059100;28;20036;-67
2023/11/09 09:12:57;;;;;;;2.30;2.10;;;;;;;14.70;64.36;100415.13;5056473;28;20044;-66
2023/11/09 09:15:23;;;;;;;3.88;3.58;;;;;;;14.88;64.24;100414.91;5057382;28;20079;-66
2023/11/09 09:17:50;;;;;;;2.00;1.90;;;;;;;14.84;61.36;100414.41;5056504;28;20285;-67
2023/11/09 09:20:20;;;;;;;1.55;1.40;;;;;;;14.75;61.51;100415.44;5057250;28;20032;-66
2023/11/09 09:22:48;;;;;;;2.78;2.58;;;;;;;14.84;61.71;100408.25;5058344;28;20036;-66
2023/11/09 09:25:16;;;;;;;2.70;2.50;;;;;;;14.95;61.90;100415.88;5045077;28;20475;-66
2023/11/09 09:27:42;;;;;;;1.42;1.33;;;;;;;15.06;60.55;100419.97;5056719;28;20209;-66
2023/11/09 09:30:17;;;;;;;4.55;3.20;;;;;;;15.16;62.46;100415.25;5057758;28;20021;-66
2023/11/09 09:32:45;;;;;;;2.88;2.60;;;;;;;15.17;59.73;100411.56;5054165;28;20549;-66
2023/11/09 09:35:11;;;;;;;1.85;1.75;;;;;;;15.02;60.63;100406.16;5052907;28;20032;-66
2023/11/09 09:37:41;;;;;;;2.03;1.50;;;;;;;15.03;61.37;100407.81;5056734;28;20087;-66
2023/11/09 09:40:17;;;;;;;1.88;1.42;;;;;;;14.94;61.30;100406.19;5058259;28;20036;-66
2023/11/09 09:42:52;;;;;;;1.63;1.52;;;;;;;14.96;62.10;100413.03;5057100;28;20037;-66
2023/11/09 09:45:28;;;;;;;1.85;1.63;;;;;;;15.10;58.66;100415.94;5051462;28;20055;-67
2023/11/09 09:47:58;;;;;;;2.13;1.70;;;;;;;15.08;59.60;100415.28;5055603;28;20045;-66
2023/11/09 09:50:25;;;;;;;3.00;1.45;;;;;;;15.07;61.31;100411.78;5058691;28;20262;-66
2023/11/09 09:52:58;;;;;;;2.17;1.90;;;;;;;15.12;61.12;100411.28;5054432;28;20055;-67
2023/11/09 09:55:24;;;;;;;1.75;1.30;;;;;;;15.07;61.10;100405.63;5057696;28;20214;-67
2023/11/09 09:57:51;;;;;;;1.98;1.80;;;;;;;15.11;58.64;100407.78;5054506;28;20037;-66
2023/11/09 10:00:27;;;;;;;1.73;1.50;;;;;;;15.10;59.39;100400.78;5058170;28;20028;-66
2023/11/09 10:03:02;;;;;;;1.55;1.30;;;;;;;15.05;57.68;100394.31;5055355;28;20041;-66
2023/11/09 10:05:33;;;;;;;2.78;1.83;;;;;;;15.10;58.52;100392.78;5057277;28;20029;-66
2023/11/09 10:08:08;;;;;;;1.60;1.50;;;;;;;15.16;59.22;100396.56;5054641;28;20068;-66
2023/11/09 10:10:36;;;;;;;2.60;1.83;;;;;;;15.19;59.39;100398.91;5055254;28;20028;-66
2023/11/09 10:13:10;;;;;;;2.20;2.00;;;;;;;15.13;59.72;100397.75;5055957;28;20339;-66
2023/11/09 10:15:36;;;;;;;1.85;1.75;;;;;;;15.04;58.54;100393.47;5056675;28;20216;-67
2023/11/09 10:18:03;;;;;;;1.88;1.60;;;;;;;15.05;59.59;100384.47;5057602;28;20068;-66
2023/11/09 10:20:30;;;;;;;3.63;1.70;;;;;;;15.04;59.41;100387.31;5055237;28;20063;-66
2023/11/09 10:22:57;;;;;;;2.15;1.45;;;;;;;15.04;58.42;100380.13;5055952;28;20033;-66
2023/11/09 10:25:27;;;;;;;2.85;2.20;;;;;;;15.04;58.62;100368.66;5058045;28;20033;-67
2023/11/09 10:28:00;;;;;;;2.35;1.95;;;;;;;15.29;58.65;100383.50;5057095;28;20270;-66
2023/11/09 10:30:40;;;;;;;2.42;1.65;;;;;;;15.34;57.87;100375.78;5055965;28;20334;-66
2023/11/09 10:33:07;;;;;;;2.58;1.90;;;;;;;15.43;59.66;100385.38;5055259;28;20285;-66
2023/11/09 10:35:39;;;;;;;2.13;1.95;;;;;;;15.40;59.83;100383.09;5056393;28;20059;-65
2023/11/09 10:38:12;;;;;;;2.08;1.90;;;;;;;15.37;57.48;100383.44;5053885;28;20073;-66
2023/11/09 10:40:41;;;;;;;1.80;1.70;;;;;;;15.34;59.50;100383.78;5056249;28;20037;-66
2023/11/09 10:43:08;;;;;;;3.05;2.30;;;;;;;15.42;55.74;100380.22;5053600;28;20348;-66
2023/11/09 10:45:36;;;;;;;2.42;1.95;;;;;;;15.45;57.70;100371.88;5054094;28;20033;-66
2023/11/09 10:48:10;;;;;;;2.10;1.63;;;;;;;15.34;57.36;100371.28;5053634;28;20036;-66
2023/11/09 10:50:49;;;;;;;2.88;1.40;;;;;;;15.29;53.91;100370.97;5053419;28;20037;-66
2023/11/09 10:53:15;;;;;;;1.40;1.25;;;;;;;15.33;53.82;100376.78;5056362;28;20040;-66
2023/11/09 10:55:47;;;;;;;1.30;1.20;;;;;;;15.31;53.32;100373.47;5054432;28;20041;-66
2023/11/09 10:58:14;;;;;;;2.00;1.42;;;;;;;15.33;55.86;100377.63;5054138;28;20108;-66
2023/11/09 11:00:42;;;;;;;2.13;1.60;;;;;;;15.31;55.58;100355.63;5054541;28;20037;-66
2023/11/09 11:03:15;;;;;;;1.60;1.50;;;;;;;15.46;56.32;100354.84;5052073;28;20041;-66
2023/11/09 11:05:46;;;;;;;1.92;1.83;;;;;;;15.47;55.84;100368.00;5053926;28;20388;-67
2023/11/09 11:08:15;;;;;;;1.67;1.58;;;;;;;15.41;54.28;100363.38;5056423;28;20083;-67
2023/11/09 11:10:47;;;;;;;1.90;1.65;;;;;;;15.42;56.08;100362.38;5054626;28;20044;-66
2023/11/09 11:13:17;;;;;;;2.03;1.33;;;;;;;15.36;56.21;100362.25;5056461;28;20036;-66
2023/11/09 11:16:07;;;;;;;1.88;1.38;;;;;;;15.29;54.35;100357.63;5053955;28;20048;-66
2023/11/09 11:18:56;;;;;;;2.92;1.40;;;;;;;15.36;55.14;100354.25;5058624;28;20204;-66
2023/11/09 11:21:28;;;;;;;2.33;1.35;;;;;;;15.42;55.92;100362.38;5056138;28;20304;-67
2023/11/09 11:23:56;;;;;;;1.30;1.20;;;;;;;15.44;53.01;100357.69;5059189;28;20037;-66
2023/11/09 11:26:26;;;;;;;1.30;1.20;;;;;;;15.34;52.12;100336.59;5057047;28;20040;-66
2023/11/09 11:28:52;;;;;;;1.63;1.15;;;;;;;15.30;52.29;100355.81;5058803;28;20346;-66
2023/11/09 11:31:20;;;;;;;1.50;1.40;;;;;;;15.24;51.21;100360.00;5058993;28;20033;-66
2023/11/09 11:33:47;;;;;;;1.80;1.40;;;;;;;15.34;52.79;100355.25;5058907;28;20033;-66
2023/11/09 11:36:26;;;;;;;1.40;1.30;;;;;;;15.40;51.46;100360.91;5060290;28;20033;-66